createdAt,value
2023-04-07T00:00:32.937Z,69.03
2023-04-07T00:03:02.635Z,69.14
2023-04-07T00:05:31.762Z,69.34
2023-04-07T00:07:59.980Z,69.36
2023-04-07T00:10:28.809Z,69.14
2023-04-07T00:12:57.124Z,68.66
2023-04-07T00:15:25.141Z,68.65
2023-04-07T00:17:56.490Z,68.50
2023-04-07T00:20:25.444Z,68.37
2023-04-07T00:22:54.131Z,68.20
2023-04-07T00:25:23.304Z,67.75
2023-04-07T00:27:51.806Z,67.76
2023-04-07T00:30:21.125Z,67.64
2023-04-07T00:32:51.560Z,67.69
2023-04-07T00:35:20.039Z,67.69
2023-04-07T00:37:49.141Z,67.86
2023-04-07T00:40:17.745Z,67.85
2023-04-07T00:42:46.521Z,67.71
2023-04-07T00:45:14.805Z,67.60
2023-04-07T00:47:43.621Z,67.31
2023-04-07T00:50:12.085Z,67.45
2023-04-07T00:52:40.391Z,67.39
2023-04-07T00:55:09.743Z,67.34
2023-04-07T00:57:39.035Z,67.33
2023-04-07T01:00:09.953Z,67.50
2023-04-07T01:02:45.233Z,67.74
2023-04-07T01:05:17.565Z,67.86
2023-04-07T01:08:04.881Z,67.92
2023-04-07T01:10:39.684Z,68.16
2023-04-07T01:13:52.979Z,68.21
2023-04-07T01:16:52.471Z,67.97
2023-04-07T01:19:35.057Z,67.82
2023-04-07T01:22:14.088Z,67.64
2023-04-07T01:25:07.480Z,67.42
2023-04-07T01:27:43.245Z,66.98
2023-04-07T01:30:13.006Z,66.92
2023-04-07T01:32:44.965Z,66.97
2023-04-07T01:35:13.576Z,67.00
2023-04-07T01:37:41.964Z,66.61
2023-04-07T01:40:11.304Z,65.70
2023-04-07T01:42:39.807Z,65.41
2023-04-07T01:45:08.466Z,64.80
2023-04-07T01:47:37.860Z,64.89
2023-04-07T01:50:09.159Z,65.04
2023-04-07T01:52:37.470Z,64.88
2023-04-07T01:55:06.494Z,64.32
2023-04-07T01:57:38.968Z,64.36
2023-04-07T02:00:14.426Z,64.27
2023-04-07T02:02:49.834Z,64.04
2023-04-07T02:05:19.953Z,64.02
2023-04-07T02:07:59.916Z,64.03
2023-04-07T02:10:37.288Z,63.48
2023-04-07T02:13:09.136Z,63.43
2023-04-07T02:15:37.268Z,63.53
2023-04-07T02:18:05.820Z,63.23
2023-04-07T02:20:34.547Z,63.12
2023-04-07T02:23:02.642Z,63.27
2023-04-07T02:25:32.129Z,63.39
2023-04-07T02:28:00.868Z,63.35
2023-04-07T02:30:28.946Z,63.36
2023-04-07T02:32:57.999Z,63.28
2023-04-07T02:35:26.422Z,62.77
2023-04-07T02:37:54.869Z,62.86
2023-04-07T02:40:23.170Z,63.04
2023-04-07T02:42:57.412Z,62.96
2023-04-07T02:45:25.399Z,63.08
2023-04-07T02:47:54.387Z,63.22
2023-04-07T02:50:22.502Z,63.17
2023-04-07T02:52:50.912Z,63.28
2023-04-07T02:55:19.088Z,63.29
2023-04-07T02:57:47.814Z,63.10
2023-04-07T03:00:31.402Z,63.08
2023-04-07T03:03:08.786Z,63.09
2023-04-07T03:05:39.427Z,63.21
2023-04-07T03:08:07.872Z,63.23
2023-04-07T03:10:37.915Z,63.34
2023-04-07T03:13:08.580Z,63.56
2023-04-07T03:15:37.261Z,63.72
2023-04-07T03:18:06.915Z,63.83
2023-04-07T03:20:36.028Z,63.92
2023-04-07T03:23:08.950Z,64.07
2023-04-07T03:25:39.989Z,64.29
2023-04-07T03:28:08.082Z,64.10
2023-04-07T03:30:41.138Z,64.01
2023-04-07T03:33:10.124Z,64.14
2023-04-07T03:35:38.310Z,64.20
2023-04-07T03:38:08.184Z,64.23
2023-04-07T03:40:37.695Z,64.29
2023-04-07T03:43:06.076Z,64.53
2023-04-07T03:45:34.868Z,64.52
2023-04-07T03:48:06.052Z,64.48
2023-04-07T03:50:34.185Z,64.58
2023-04-07T03:53:16.788Z,64.58
2023-04-07T03:55:45.017Z,64.47
2023-04-07T03:58:19.942Z,64.45
2023-04-07T04:00:48.839Z,64.60
2023-04-07T04:03:18.350Z,64.82
2023-04-07T04:05:56.452Z,64.87
2023-04-07T04:08:31.266Z,65.07
2023-04-07T04:10:59.603Z,65.11
2023-04-07T04:13:36.491Z,64.90
2023-04-07T04:16:06.790Z,65.11
2023-04-07T04:18:35.784Z,65.24
2023-04-07T04:21:07.088Z,65.04
2023-04-07T04:23:36.286Z,65.06
2023-04-07T04:26:04.857Z,65.13
2023-04-07T04:28:38.518Z,65.07
2023-04-07T04:31:09.047Z,64.72
2023-04-07T04:33:41.414Z,64.59
2023-04-07T04:36:10.642Z,64.65
2023-04-07T04:38:39.038Z,64.72
2023-04-07T04:41:21.408Z,64.86
2023-04-07T04:43:52.283Z,64.84
2023-04-07T04:46:24.502Z,64.87
2023-04-07T04:48:54.397Z,64.90
2023-04-07T04:51:24.132Z,64.74
2023-04-07T04:53:56.699Z,64.91
2023-04-07T04:56:26.073Z,65.11
2023-04-07T04:58:55.086Z,64.95
2023-04-07T05:01:33.365Z,64.73
2023-04-07T05:04:10.568Z,64.90
2023-04-07T05:06:41.338Z,64.80
2023-04-07T05:09:14.274Z,64.61
2023-04-07T05:11:48.150Z,63.97
2023-04-07T05:14:16.568Z,63.82
2023-04-07T05:16:49.773Z,63.71
2023-04-07T05:19:24.306Z,63.74
2023-04-07T05:21:54.214Z,63.71
2023-04-07T05:24:27.544Z,63.72
2023-04-07T05:26:58.573Z,63.71
2023-04-07T05:29:27.564Z,63.70
2023-04-07T05:31:57.094Z,63.60
2023-04-07T05:34:26.025Z,63.67
2023-04-07T05:36:56.116Z,63.67
2023-04-07T05:39:24.560Z,63.73
2023-04-07T05:41:55.283Z,63.61
2023-04-07T05:44:27.686Z,63.71
2023-04-07T05:46:56.476Z,63.86
2023-04-07T05:49:27.974Z,63.98
2023-04-07T05:52:07.571Z,63.75
2023-04-07T05:54:41.013Z,63.48
2023-04-07T05:57:11.543Z,63.43
2023-04-07T05:59:42.480Z,63.39
2023-04-07T06:02:11.205Z,62.41
2023-04-07T06:04:40.554Z,61.59
2023-04-07T06:07:10.422Z,60.38
2023-04-07T06:09:38.612Z,59.37
2023-04-07T06:12:07.072Z,58.03
2023-04-07T06:14:35.585Z,56.91
2023-04-07T06:17:09.896Z,56.41
2023-04-07T06:19:39.803Z,55.63
2023-04-07T06:22:08.617Z,53.97
2023-04-07T06:24:36.889Z,51.94
2023-04-07T06:27:05.098Z,48.82
2023-04-07T06:29:34.292Z,45.05
2023-04-07T06:32:04.567Z,42.57
2023-04-07T06:34:43.572Z,40.68
2023-04-07T06:37:11.749Z,38.60
2023-04-07T06:39:41.998Z,37.38
2023-04-07T06:42:10.751Z,35.07
2023-04-07T06:44:42.927Z,33.39
2023-04-07T06:47:11.748Z,33.41
2023-04-07T06:49:42.970Z,32.15
2023-04-07T06:52:11.311Z,31.10
2023-04-07T06:54:39.513Z,29.83
2023-04-07T06:57:12.291Z,29.59
2023-04-07T06:59:40.616Z,29.10
2023-04-07T07:02:09.807Z,28.35
2023-04-07T07:04:38.941Z,27.36
2023-04-07T07:07:07.020Z,26.55
2023-04-07T07:09:35.908Z,25.73
2023-04-07T07:12:04.461Z,25.38
2023-04-07T07:14:33.252Z,25.00
2023-04-07T07:17:01.499Z,24.68
2023-04-07T07:19:29.812Z,24.89
2023-04-07T07:21:57.964Z,24.98
2023-04-07T07:24:26.241Z,25.05
2023-04-07T07:26:55.328Z,25.21
2023-04-07T07:29:23.478Z,25.43
2023-04-07T07:31:53.374Z,25.25
2023-04-07T07:34:22.612Z,25.48
2023-04-07T07:36:56.593Z,25.47
2023-04-07T07:39:24.766Z,25.26
2023-04-07T07:41:53.121Z,25.45
2023-04-07T07:44:22.931Z,26.62
2023-04-07T07:46:51.472Z,28.53
2023-04-07T07:49:21.631Z,30.34
2023-04-07T07:51:50.043Z,31.97
2023-04-07T07:54:19.191Z,33.59
2023-04-07T07:56:47.337Z,34.62
2023-04-07T07:59:17.774Z,36.16
2023-04-07T08:01:49.742Z,37.38
2023-04-07T08:04:18.583Z,38.14
2023-04-07T08:06:47.442Z,38.93
2023-04-07T08:09:16.301Z,39.78
2023-04-07T08:11:44.567Z,40.68
2023-04-07T08:14:12.994Z,41.25
2023-04-07T08:16:41.441Z,42.11
2023-04-07T08:19:09.859Z,42.65
2023-04-07T08:21:39.156Z,42.79
2023-04-07T08:24:07.418Z,43.00
2023-04-07T08:26:35.602Z,43.16
2023-04-07T08:29:03.697Z,43.60
2023-04-07T08:31:32.821Z,43.72
2023-04-07T08:34:01.018Z,43.73
2023-04-07T08:36:30.292Z,43.89
2023-04-07T08:39:00.350Z,44.01
2023-04-07T08:41:39.509Z,44.27
2023-04-07T08:44:08.029Z,44.24
2023-04-07T08:46:36.212Z,44.33
2023-04-07T08:49:04.489Z,44.33
2023-04-07T08:51:34.442Z,44.55
2023-04-07T08:54:11.040Z,45.00
2023-04-07T08:56:43.730Z,44.97
2023-04-07T08:59:13.247Z,44.96
2023-04-07T09:01:42.648Z,44.94
2023-04-07T09:04:11.960Z,44.62
2023-04-07T09:06:40.490Z,44.52
2023-04-07T09:09:08.648Z,44.31
2023-04-07T09:11:38.232Z,44.62
2023-04-07T09:14:06.376Z,44.65
2023-04-07T09:16:34.498Z,44.56
2023-04-07T09:19:02.639Z,44.38
2023-04-07T09:21:49.999Z,44.65
2023-04-07T09:24:25.200Z,44.73
2023-04-07T09:27:08.716Z,44.97
2023-04-07T09:29:37.881Z,44.96
2023-04-07T09:32:06.827Z,45.24
2023-04-07T09:34:38.475Z,45.42
2023-04-07T09:37:09.768Z,45.51
2023-04-07T09:39:52.421Z,45.74
2023-04-07T09:42:20.969Z,45.80
2023-04-07T09:44:49.158Z,45.59
2023-04-07T09:47:18.147Z,45.73
2023-04-07T09:49:51.324Z,45.74
2023-04-07T09:52:20.824Z,45.38
2023-04-07T09:54:49.341Z,45.07
2023-04-07T09:57:18.722Z,45.27
2023-04-07T09:59:50.275Z,45.15
2023-04-07T10:02:18.766Z,45.05
2023-04-07T10:04:47.392Z,45.03
2023-04-07T10:07:15.574Z,45.13
2023-04-07T10:09:47.657Z,45.53
2023-04-07T10:12:16.001Z,45.43
2023-04-07T10:14:47.220Z,45.26
2023-04-07T10:17:18.798Z,45.12
2023-04-07T10:19:47.304Z,45.26
2023-04-07T10:22:15.536Z,45.38
2023-04-07T10:24:57.525Z,45.47
2023-04-07T10:27:31.073Z,45.61
2023-04-07T10:29:59.828Z,45.35
2023-04-07T10:32:27.849Z,45.56
2023-04-07T10:34:59.180Z,45.77
2023-04-07T10:37:28.028Z,45.89
2023-04-07T10:40:21.848Z,45.96
2023-04-07T10:42:49.910Z,45.89
2023-04-07T10:45:18.011Z,46.01
2023-04-07T10:48:09.754Z,46.01
2023-04-07T10:50:38.762Z,45.94
2023-04-07T10:53:08.540Z,45.70
2023-04-07T10:55:46.345Z,45.91
2023-04-07T10:58:29.115Z,45.67
2023-04-07T11:01:04.837Z,45.77
2023-04-07T11:03:35.073Z,45.98
2023-04-07T11:06:10.232Z,46.05
2023-04-07T11:08:38.838Z,45.69
2023-04-07T11:11:14.188Z,45.69
2023-04-07T11:13:48.893Z,45.85
2023-04-07T11:16:20.930Z,45.46
2023-04-07T11:18:50.996Z,45.10
2023-04-07T11:21:19.417Z,45.13
2023-04-07T11:23:48.355Z,45.41
2023-04-07T11:26:18.172Z,45.40
2023-04-07T11:28:49.514Z,45.30
2023-04-07T11:31:27.719Z,44.75
2023-04-07T11:34:02.157Z,44.48
2023-04-07T11:36:40.697Z,44.59
2023-04-07T11:39:19.636Z,44.42
2023-04-07T11:41:48.558Z,44.15
2023-04-07T11:44:16.717Z,44.16
2023-04-07T11:46:55.320Z,43.96
2023-04-07T11:49:28.395Z,43.95
2023-04-07T11:52:09.443Z,43.83
2023-04-07T11:54:42.511Z,43.79
2023-04-07T11:57:13.112Z,43.74
2023-04-07T11:59:43.803Z,43.75
2023-04-07T12:02:11.992Z,43.85
2023-04-07T12:04:56.269Z,43.85
2023-04-07T12:07:26.256Z,43.88
2023-04-07T12:09:55.990Z,43.51
2023-04-07T12:12:28.574Z,43.33
2023-04-07T12:15:02.712Z,42.96
2023-04-07T12:17:31.888Z,43.03
2023-04-07T12:20:08.293Z,42.90
2023-04-07T12:22:36.648Z,42.75
2023-04-07T12:25:05.036Z,42.48
2023-04-07T12:27:42.647Z,42.46
2023-04-07T12:30:13.342Z,42.48
2023-04-07T12:32:42.044Z,42.41
2023-04-07T12:35:10.724Z,42.56
2023-04-07T12:37:39.296Z,42.50
2023-04-07T12:40:08.153Z,42.36
2023-04-07T12:42:37.149Z,42.67
2023-04-07T12:45:05.856Z,42.55
2023-04-07T12:47:35.365Z,42.32
2023-04-07T12:50:04.080Z,41.85
2023-04-07T12:52:37.501Z,41.50
2023-04-07T12:55:06.094Z,41.26
2023-04-07T12:57:34.214Z,41.46
2023-04-07T13:00:02.626Z,41.38
2023-04-07T13:02:36.898Z,41.24
2023-04-07T13:05:06.076Z,41.12
2023-04-07T13:07:36.417Z,41.06
2023-04-07T13:10:07.288Z,40.80
2023-04-07T13:12:35.940Z,40.72
2023-04-07T13:15:09.208Z,40.66
2023-04-07T13:17:38.716Z,40.63
2023-04-07T13:20:07.904Z,40.39
2023-04-07T13:22:36.301Z,40.35
2023-04-07T13:25:04.907Z,40.28
2023-04-07T13:27:34.112Z,40.09
2023-04-07T13:30:02.461Z,40.25
2023-04-07T13:32:33.472Z,40.70
2023-04-07T13:35:01.850Z,40.96
2023-04-07T13:37:30.077Z,41.08
2023-04-07T13:39:58.342Z,41.28
2023-04-07T13:42:26.801Z,41.44
2023-04-07T13:44:58.170Z,41.75
2023-04-07T13:47:27.043Z,42.18
2023-04-07T13:49:55.861Z,42.42
2023-04-07T13:52:24.281Z,42.38
2023-04-07T13:54:52.377Z,42.41
2023-04-07T13:57:23.416Z,42.41
2023-04-07T13:59:54.249Z,42.49
2023-04-07T14:02:24.310Z,42.52
2023-04-07T14:04:52.669Z,42.68
2023-04-07T14:07:23.193Z,42.89
2023-04-07T14:09:51.674Z,42.95
2023-04-07T14:12:23.711Z,43.16
2023-04-07T14:14:55.607Z,43.24
2023-04-07T14:17:24.807Z,43.22
2023-04-07T14:19:52.903Z,43.09
2023-04-07T14:22:26.986Z,42.95
2023-04-07T14:25:00.983Z,42.81
2023-04-07T14:28:03.129Z,42.79
2023-04-07T14:30:31.743Z,43.01
2023-04-07T14:33:01.465Z,43.11
2023-04-07T14:35:31.881Z,43.26
2023-04-07T14:38:00.570Z,43.34
2023-04-07T14:40:33.620Z,43.48
2023-04-07T14:43:07.312Z,43.34
2023-04-07T14:45:35.882Z,43.14
2023-04-07T14:48:05.970Z,43.12
2023-04-07T14:50:34.406Z,42.96
2023-04-07T14:53:03.614Z,42.94
2023-04-07T14:55:32.192Z,43.16
2023-04-07T14:58:00.296Z,43.27
2023-04-07T15:00:28.994Z,43.25
2023-04-07T15:03:16.391Z,43.28
2023-04-07T15:05:44.718Z,43.24
2023-04-07T15:08:14.272Z,43.24
2023-04-07T15:10:42.793Z,43.26
2023-04-07T15:13:11.192Z,43.44
2023-04-07T15:15:39.264Z,43.77
2023-04-07T15:18:07.558Z,43.76
2023-04-07T15:20:35.722Z,43.86
2023-04-07T15:23:03.739Z,43.94
2023-04-07T15:25:32.350Z,44.11
2023-04-07T15:28:00.697Z,44.16
2023-04-07T15:30:29.139Z,44.18
2023-04-07T15:33:01.151Z,44.08
2023-04-07T15:35:30.189Z,44.20
2023-04-07T15:37:58.326Z,44.25
2023-04-07T15:40:26.332Z,44.15
2023-04-07T15:42:54.433Z,43.92
2023-04-07T15:45:22.724Z,43.76
2023-04-07T15:47:52.809Z,43.83
2023-04-07T15:50:20.886Z,43.85
2023-04-07T15:52:49.368Z,43.90
2023-04-07T15:55:17.429Z,43.83
2023-04-07T15:57:46.870Z,43.96
2023-04-07T16:00:15.548Z,43.83
2023-04-07T16:02:45.376Z,43.43
2023-04-07T16:05:13.798Z,43.37
2023-04-07T16:07:41.862Z,43.24
2023-04-07T16:10:12.524Z,43.18
2023-04-07T16:12:42.431Z,43.11
2023-04-07T16:15:11.759Z,42.88
2023-04-07T16:17:42.764Z,42.93
2023-04-07T16:20:14.936Z,42.94
2023-04-07T16:22:43.991Z,43.07
2023-04-07T16:25:12.399Z,43.18
2023-04-07T16:27:40.824Z,43.30
2023-04-07T16:30:14.319Z,43.22
2023-04-07T16:32:46.724Z,43.20
2023-04-07T16:35:15.203Z,43.44
2023-04-07T16:37:47.199Z,43.85
2023-04-07T16:40:16.232Z,44.09
2023-04-07T16:42:44.380Z,44.26
2023-04-07T16:45:13.550Z,44.48
2023-04-07T16:47:44.580Z,44.75
2023-04-07T16:50:12.867Z,44.75
2023-04-07T16:52:41.412Z,44.79
2023-04-07T16:55:09.732Z,44.73
2023-04-07T16:57:38.961Z,44.83
2023-04-07T17:00:08.024Z,44.70
2023-04-07T17:02:37.398Z,44.68
2023-04-07T17:05:06.261Z,44.70
2023-04-07T17:07:34.566Z,44.91
2023-04-07T17:10:07.513Z,44.94
2023-04-07T17:12:36.849Z,45.13
2023-04-07T17:15:11.207Z,45.43
2023-04-07T17:17:40.594Z,45.68
2023-04-07T17:20:09.600Z,45.99
2023-04-07T17:22:37.844Z,45.97
2023-04-07T17:25:07.503Z,46.10
2023-04-07T17:27:36.172Z,46.19
2023-04-07T17:30:08.499Z,46.27
2023-04-07T17:32:37.588Z,46.52
2023-04-07T17:35:06.091Z,46.85
2023-04-07T17:37:34.554Z,47.17
2023-04-07T17:40:03.000Z,47.46
2023-04-07T17:42:33.332Z,47.73
2023-04-07T17:45:03.310Z,47.90
2023-04-07T17:47:31.804Z,48.01
2023-04-07T17:50:00.376Z,48.12
2023-04-07T17:52:31.629Z,48.31
2023-04-07T17:55:00.726Z,48.43
2023-04-07T17:57:29.227Z,48.60
2023-04-07T17:59:57.253Z,48.76
2023-04-07T18:02:27.055Z,48.97
2023-04-07T18:04:57.796Z,49.20
2023-04-07T18:07:25.827Z,49.37
2023-04-07T18:09:54.070Z,49.45
2023-04-07T18:12:23.341Z,49.55
2023-04-07T18:14:51.861Z,49.75
2023-04-07T18:17:19.939Z,49.89
2023-04-07T18:19:48.581Z,50.01
2023-04-07T18:22:18.058Z,50.27
2023-04-07T18:24:46.775Z,50.45
2023-04-07T18:27:15.023Z,50.58
2023-04-07T18:29:46.904Z,50.65
2023-04-07T18:32:15.033Z,50.78
2023-04-07T18:34:47.319Z,50.95
2023-04-07T18:37:16.695Z,51.03
2023-04-07T18:39:44.993Z,51.16
2023-04-07T18:42:13.308Z,51.24
2023-04-07T18:44:41.540Z,51.30
2023-04-07T18:47:09.751Z,51.33
2023-04-07T18:49:39.835Z,51.48
2023-04-07T18:52:08.996Z,51.64
2023-04-07T18:54:37.229Z,51.64
2023-04-07T18:57:05.679Z,51.65
2023-04-07T18:59:34.298Z,51.71
2023-04-07T19:02:02.497Z,51.75
2023-04-07T19:04:31.436Z,51.86
2023-04-07T19:07:00.164Z,52.07
2023-04-07T19:09:29.728Z,52.09
2023-04-07T19:11:58.104Z,52.19
2023-04-07T19:14:26.644Z,52.37
2023-04-07T19:16:54.855Z,52.53
2023-04-07T19:19:23.364Z,52.54
2023-04-07T19:21:57.687Z,52.64
2023-04-07T19:24:26.730Z,52.70
2023-04-07T19:26:54.805Z,52.76
2023-04-07T19:29:23.471Z,52.88
2023-04-07T19:31:53.078Z,53.07
2023-04-07T19:34:21.182Z,53.30
2023-04-07T19:36:50.086Z,53.39
2023-04-07T19:39:19.285Z,53.40
2023-04-07T19:41:48.381Z,53.20
2023-04-07T19:44:18.293Z,53.17
2023-04-07T19:46:46.412Z,53.10
2023-04-07T19:49:14.608Z,53.29
2023-04-07T19:51:43.271Z,53.54
2023-04-07T19:54:12.212Z,53.63
2023-04-07T19:56:40.652Z,53.54
2023-04-07T19:59:09.677Z,53.46
2023-04-07T20:01:38.186Z,53.73
2023-04-07T20:04:06.604Z,53.80
2023-04-07T20:06:36.797Z,53.95
2023-04-07T20:09:04.995Z,54.16
2023-04-07T20:11:33.055Z,54.38
2023-04-07T20:14:04.494Z,54.53
2023-04-07T20:16:32.893Z,54.56
2023-04-07T20:19:01.097Z,54.52
2023-04-07T20:21:32.418Z,54.53
2023-04-07T20:24:00.761Z,54.63
2023-04-07T20:26:28.861Z,54.56
2023-04-07T20:28:56.906Z,54.60
2023-04-07T20:31:25.424Z,54.67
2023-04-07T20:33:53.578Z,54.82
2023-04-07T20:36:21.900Z,54.89
2023-04-07T20:38:50.560Z,55.04
2023-04-07T20:41:22.326Z,55.14
2023-04-07T20:43:51.941Z,55.18
2023-04-07T20:46:21.392Z,55.23
2023-04-07T20:48:49.856Z,55.30
2023-04-07T20:51:18.275Z,55.40
2023-04-07T20:53:48.510Z,55.34
2023-04-07T20:56:16.554Z,55.37
2023-04-07T20:58:48.259Z,55.40
2023-04-07T21:01:16.765Z,55.50
2023-04-07T21:03:45.245Z,55.60
2023-04-07T21:06:13.840Z,55.66
2023-04-07T21:08:42.092Z,55.75
2023-04-07T21:11:10.423Z,55.83
2023-04-07T21:13:38.475Z,55.80
2023-04-07T21:16:06.907Z,55.81
2023-04-07T21:18:35.998Z,55.94
2023-04-07T21:21:04.463Z,55.98
2023-04-07T21:23:32.764Z,56.06
2023-04-07T21:26:02.315Z,56.19
2023-04-07T21:28:34.634Z,56.21
2023-04-07T21:31:04.072Z,56.27
2023-04-07T21:33:32.600Z,56.34
2023-04-07T21:36:05.448Z,56.33
2023-04-07T21:38:33.822Z,56.19
2023-04-07T21:41:02.187Z,56.28
2023-04-07T21:43:30.628Z,56.30
2023-04-07T21:46:01.393Z,56.28
2023-04-07T21:48:30.361Z,56.43
2023-04-07T21:50:58.570Z,56.58
2023-04-07T21:53:27.429Z,56.62
2023-04-07T21:55:55.474Z,56.80
2023-04-07T21:58:25.389Z,56.92
2023-04-07T22:00:54.608Z,57.18
2023-04-07T22:03:23.846Z,57.33
2023-04-07T22:06:00.059Z,57.46
2023-04-07T22:08:28.850Z,57.61
2023-04-07T22:10:58.762Z,57.87
2023-04-07T22:13:27.393Z,57.99
2023-04-07T22:15:55.885Z,58.12
2023-04-07T22:18:23.935Z,58.18
2023-04-07T22:20:54.843Z,58.27
2023-04-07T22:23:23.044Z,58.41
2023-04-07T22:25:52.842Z,58.39
2023-04-07T22:28:22.268Z,58.49
2023-04-07T22:30:50.375Z,58.55
2023-04-07T22:33:19.838Z,58.65
2023-04-07T22:35:48.567Z,58.58
2023-04-07T22:38:19.768Z,58.59
2023-04-07T22:40:47.899Z,58.55
2023-04-07T22:43:16.236Z,58.60
2023-04-07T22:45:44.483Z,58.66
2023-04-07T22:48:12.746Z,58.66
2023-04-07T22:50:43.695Z,58.70
2023-04-07T22:53:11.781Z,58.79
2023-04-07T22:55:40.108Z,58.89
2023-04-07T22:58:08.182Z,58.99
2023-04-07T23:00:36.509Z,59.09
2023-04-07T23:03:08.011Z,59.15
2023-04-07T23:05:37.147Z,59.19
2023-04-07T23:08:05.286Z,59.30
2023-04-07T23:10:33.366Z,59.39
2023-04-07T23:13:02.116Z,59.53
2023-04-07T23:15:30.410Z,59.60
2023-04-07T23:18:03.781Z,59.61
2023-04-07T23:20:32.435Z,59.74
2023-04-07T23:23:04.683Z,59.79
2023-04-07T23:25:34.948Z,59.84
2023-04-07T23:28:03.114Z,59.94
2023-04-07T23:30:31.537Z,60.01
2023-04-07T23:33:00.837Z,60.00
2023-04-07T23:35:29.568Z,60.02
2023-04-07T23:37:59.071Z,60.16
2023-04-07T23:40:27.524Z,60.21
2023-04-07T23:42:56.948Z,60.31
2023-04-07T23:45:25.232Z,60.34
2023-04-07T23:47:54.030Z,60.49
2023-04-07T23:50:23.122Z,60.66
2023-04-07T23:52:51.175Z,60.82
2023-04-07T23:55:19.816Z,60.90
2023-04-07T23:57:48.195Z,61.11
